Patos — WDF6110 — position and weather

sailwx.info

Track history (hours):
 
Tides and Currents Weather Stations Pressure Air Temp Water Temp Dewpoint Dewpoint Depression Visibility Wind Speed Wind Dir Waves Ship Positions

Patos

Owner: Demelza Charters LLP, Bellingham, WA. More information available from US FCC via Universal Licensing System and Coast Guard Vessel Documentation Center.

Last reported at 2017-Sep-21 19:29 UTC. Time now 2017-Sep-24 14:12 UTC.
Position N 48°37' W 122°43'.

Length 16 m.

Type: Pleasure craft. MMSI: 367470750.

Date/timePositionNaut miles runAvg speedWind from/ knotsBaromVisibWave heightAir tempDewpointWater temp
2017-Sep-21 19:29N 48°37' W 122°43'3 5.5
2017-Sep-21 18:59N 48°36' W 122°47'4 0.2
2017-Sep-20 17:54N 48°39' W 122°52'3 6.5
2017-Sep-20 17:29N 48°36' W 122°52'4 7.2
2017-Sep-20 16:59N 48°33' W 122°55'2 4.7
2017-Sep-20 16:29N 48°34' W 122°59'0 0.0
2017-Sep-20 00:30N 48°34' W 122°58'2 0.7
2017-Sep-19 21:30N 48°32' W 123°01'2 3.2
2017-Sep-19 21:00N 48°33' W 122°58'4 8.5
2017-Sep-19 20:30N 48°29' W 122°57'5 4.4
2017-Sep-19 19:24N 48°28' W 123°05'3 7.9
2017-Sep-19 18:58N 48°30' W 123°09'3 7.2
2017-Sep-19 18:30N 48°33' W 123°11'  
2017-Sep-16 22:04N 48°39' W 122°40'8 0.2
2017-Sep-14 18:32N 48°38' W 122°52'0 8.4
2017-Sep-14 18:30N 48°38' W 122°52'4 7.8
2017-Sep-14 18:00N 48°34' W 122°54'4 8.1
2017-Sep-14 17:30N 48°32' W 122°59'19 0.8
2017-Sep-13 17:57N 48°42' W 123°24'3 7.8
2017-Sep-13 17:30N 48°43' W 123°29'4 7.5
2017-Sep-13 17:00N 48°45' W 123°34'4 7.7
2017-Sep-13 16:25N 48°49' W 123°35'  
Track history (hours):
 
Tides and Currents Weather Stations Pressure Air Temp Water Temp Dewpoint Dewpoint Depression Visibility Wind Speed Wind Dir Waves Ship Positions

Patos

Owner: Demelza Charters LLP, Bellingham, WA. More information available from US FCC via Universal Licensing System and Coast Guard Vessel Documentation Center.

Last reported at 2017-Sep-21 19:29 UTC. Time now 2017-Sep-24 14:12 UTC.
Position N 48°37' W 122°43'.

Length 16 m.

Type: Pleasure craft. MMSI: 367470750.

Date/timePositionNaut miles runAvg speedWind from/ knotsBaromVisibWave heightAir tempDewpointWater temp
2017-Sep-21 19:29N 48°37' W 122°43'3 5.5
2017-Sep-21 18:59N 48°36' W 122°47'4 0.2
2017-Sep-20 17:54N 48°39' W 122°52'3 6.5
2017-Sep-20 17:29N 48°36' W 122°52'4 7.2
2017-Sep-20 16:59N 48°33' W 122°55'2 4.7
2017-Sep-20 16:29N 48°34' W 122°59'0 0.0
2017-Sep-20 00:30N 48°34' W 122°58'2 0.7
2017-Sep-19 21:30N 48°32' W 123°01'2 3.2
2017-Sep-19 21:00N 48°33' W 122°58'4 8.5
2017-Sep-19 20:30N 48°29' W 122°57'5 4.4
2017-Sep-19 19:24N 48°28' W 123°05'3 7.9
2017-Sep-19 18:58N 48°30' W 123°09'3 7.2
2017-Sep-19 18:30N 48°33' W 123°11'  
2017-Sep-16 22:04N 48°39' W 122°40'8 0.2
2017-Sep-14 18:32N 48°38' W 122°52'0 8.4
2017-Sep-14 18:30N 48°38' W 122°52'4 7.8
2017-Sep-14 18:00N 48°34' W 122°54'4 8.1
2017-Sep-14 17:30N 48°32' W 122°59'19 0.8
2017-Sep-13 17:57N 48°42' W 123°24'3 7.8
2017-Sep-13 17:30N 48°43' W 123°29'4 7.5
2017-Sep-13 17:00N 48°45' W 123°34'4 7.7
2017-Sep-13 16:25N 48°49' W 123°35'  

Dump ship's entire track history